Latest Weather Observations for Ballera

IDQ60801

Issued at 10:21 am EST Monday 18 February 2019 (issued every 10 minutes, with the page automatically refreshed every 10 minutes)

About weather observations | Map of weather stations | Latest weather observations for QLD | Other Formats
Station Details ID: 045009 Name: BALLERA GAS FIELD Lat: -27.40 Lon: 141.81 Height: 114.5 m
Data from the previous 72 hours. | See also: Recent months at Ballera
Date/Time
EST
Temp
°C
App
Temp
°C
Dew
Point
°C
Rel
Hum
%
Delta-T
°C
Wind Press
QNH
hPa
Press
MSL
hPa
Rain since
9am
mm
Dir  Spd
km/h
Gust
km/h
Spd
kts
Gust
kts
18/10:00am 38.9 34.0 1.8 10 19.4 NW 17 22 9 12 1007.4 1006.5 0.0
18/09:30am 37.6 31.9 -0.6 9 19.1 NW 19 22 10 12 1007.5 1006.6 0.0
18/09:00am 35.9 30.4 -1.9 9 18.3 WNW 17 20 9 11 1007.4 1006.5 0.0
18/08:30am 33.5 27.6 -2.3 10 16.9 NW 19 22 10 12 1007.3 1006.4 0.0
18/08:00am 31.4 25.8 -2.6 11 15.8 WNW 17 19 9 10 1007.0 1006.1 0.0
18/07:30am 29.5 23.7 -1.8 13 14.5 NW 19 20 10 11 1006.7 1005.8 0.0
18/07:00am 27.7 21.8 -2.2 14 13.6 NW 19 20 10 11 1006.4 1005.5 0.0
18/06:30am 26.7 20.8 -2.1 15 13.0 WNW 19 20 10 11 1006.1 1005.2 0.0
18/06:00am 26.8 20.6 -2.9 14 13.3 WNW 20 20 11 11 1005.9 1005.0 0.0
18/05:30am 27.4 21.3 -2.4 14 13.4 NW 20 22 11 12 1005.6 1004.7 0.0
18/05:00am 27.7 21.5 -3.2 13 13.8 NW 20 22 11 12 1005.3 1004.4 0.0
18/04:30am 29.2 23.0 -3.1 12 14.6 NW 20 22 11 12 1005.1 1004.2 0.0
18/04:00am 29.4 23.9 -1.9 13 14.5 NNW 17 19 9 10 1005.0 1004.1 0.0
18/03:30am 28.5 24.2 -1.6 14 13.9 N 11 13 6 7 1005.0 1004.1 0.0
18/03:00am 28.7 25.4 -1.4 14 14.0 E 6 13 3 7 1005.2 1004.3 0.0
18/02:30am 28.6 23.0 -2.5 13 14.1 WNW 17 19 9 10 1005.1 1004.2 0.0
18/02:00am 29.0 23.7 -3.2 12 14.6 W 15 17 8 9 1005.0 1004.1 0.0
18/01:30am 29.6 24.3 -3.9 11 15.0 W 15 17 8 9 1005.1 1004.2 0.0
18/01:00am 30.4 25.1 -3.3 11 15.4 W 15 17 8 9 1005.2 1004.3 0.0
18/12:30am 31.0 26.0 -4.1 10 15.8 W 13 15 7 8 1005.6 1004.7 0.0
18/12:00am 31.2 26.2 -4.0 10 16.0 WNW 13 15 7 8 1005.8 1004.9 0.0
 
Date/Time
EST
Temp
°C
App
Temp
°C
Dew
Point
°C
Rel
Hum
%
Delta-T
°C
Wind Press
QNH
hPa
Press
MSL
hPa
Rain since
9am
mm
Dir  Spd
km/h
Gust
km/h
Spd
kts
Gust
kts
17/11:30pm 32.6 27.6 -4.3 9 16.8 W 13 19 7 10 1006.0 1005.1 0.0
17/11:00pm 33.4 28.8 -3.7 9 17.2 W 11 11 6 6 1006.0 1005.1 0.0
17/10:30pm 34.4 29.9 -3.0 9 17.6 W 11 11 6 6 1006.0 1005.1 0.0
17/10:00pm 35.0 30.4 -4.1 8 18.2 W 11 13 6 7 1006.0 1005.1 0.0
17/09:30pm 34.5 30.2 -4.5 8 17.9 W 9 13 5 7 1006.0 1005.1 0.0
17/09:00pm 35.5 30.9 -3.8 8 18.5 W 11 11 6 6 1005.9 1005.0 0.0
17/08:30pm 36.3 31.8 -3.2 8 18.8 W 11 13 6 7 1005.8 1004.9 0.0
17/08:00pm 37.3 31.9 -4.2 7 19.6 W 15 17 8 9 1005.4 1004.5 0.0
17/07:30pm 38.1 33.5 -3.7 7 20.0 W 11 13 6 7 1005.1 1004.2 0.0
17/07:00pm 39.8 35.5 -4.5 6 21.2 W 9 17 5 9 1004.9 1004.0 0.0
17/06:30pm 40.4 35.4 -4.1 6 21.4 NW 13 26 7 14 1004.6 1003.7 0.0
17/06:00pm 41.0 35.3 -3.6 6 21.8 SW 17 26 9 14 1004.5 1003.6 0.0
17/05:34pm 41.9 36.3 -3.0 6 22.2 WNW 17 37 9 20 1004.4 1003.5 0.0
17/05:30pm 41.5 36.2 -3.3 6 22.0 NW 15 24 8 13 1004.4 1003.5 0.0
17/05:00pm 41.9 37.8 -3.0 6 22.3 WNW 9 17 5 9 1004.6 1003.7 0.0
17/04:30pm 42.2 36.0 -2.8 6 22.4 WNW 20 35 11 19 1004.7 1003.8 0.0
17/04:00pm 42.0 37.2 -2.9 6 22.3 WSW 13 20 7 11 1004.9 1004.0 0.0
17/03:30pm 42.2 37.0 -2.8 6 22.4 W 15 28 8 15 1005.2 1004.3 0.0
17/03:00pm 42.0 36.8 -2.9 6 22.3 WNW 15 24 8 13 1005.6 1004.7 0.0
17/02:30pm 40.7 35.2 -1.8 7 21.2 NW 17 30 9 16 1006.2 1005.3 0.0
17/02:00pm 41.1 35.7 -1.5 7 21.5 NW 17 28 9 15 1006.8 1005.9 0.0
17/01:30pm 41.9 36.3 -3.0 6 22.2 W 17 28 9 15 1007.2 1006.3 0.0
17/01:00pm 40.5 35.0 -1.9 7 21.2 WNW 17 32 9 17 1007.7 1006.8 0.0
17/12:30pm 41.7 36.1 -3.1 6 22.1 NNW 17 30 9 16 1007.9 1007.0 0.0
17/12:00pm 40.2 35.1 -2.1 7 21.0 NW 15 32 8 17 1008.3 1007.5 0.0
17/11:30am 40.8 35.2 0.1 8 20.9 NW 19 35 10 19 1008.7 1007.9 0.0
17/11:00am 38.5 33.3 0.0 9 19.6 NNW 17 28 9 15 1009.0 1008.2 0.0
17/10:30am 37.6 32.3 2.1 11 18.5 N 19 24 10 13 1009.4 1008.6 0.0
17/10:00am 35.7 30.4 1.9 12 17.4 N 19 24 10 13 1009.3 1008.5 0.0
17/09:30am 34.0 29.4 3.7 15 15.9 N 17 20 9 11 1009.3 1008.5 0.0
17/09:00am 32.1 27.6 4.0 17 14.6 N 17 20 9 11 1009.0 1008.2 0.0
17/08:30am 30.9 26.4 2.2 16 14.4 NNE 15 19 8 10 1008.8 1008.0 0.0
17/08:00am 29.0 24.9 2.3 18 13.3 NNE 13 15 7 8 1008.6 1007.8 0.0
17/07:30am 27.5 23.9 3.2 21 12.1 NE 11 15 6 8 1008.3 1007.5 0.0
17/07:00am 25.6 22.2 4.1 25 10.8 NNE 11 17 6 9 1008.0 1007.1 0.0
17/06:30am 25.5 22.6 4.6 26 10.6 N 9 13 5 7 1007.7 1006.8 0.0
17/06:00am 25.4 21.6 4.0 25 10.7 NNW 13 17 7 9 1007.6 1006.7 0.0
17/05:30am 25.8 22.8 4.3 25 10.8 NW 9 11 5 6 1007.1 1006.2 0.0
17/05:00am 26.5 22.0 4.3 24 11.3 WNW 17 19 9 10 1006.5 1005.6 0.0
17/04:30am 27.1 23.8 4.8 24 11.4 WNW 11 17 6 9 1006.3 1005.4 0.0
17/04:00am 27.0 22.5 4.1 23 11.6 WNW 17 19 9 10 1006.1 1005.2 0.0
17/03:30am 27.4 23.7 4.5 23 11.7 WNW 13 17 7 9 1006.3 1005.4 0.0
17/03:00am 27.5 22.8 3.2 21 12.2 W 17 19 9 10 1006.1 1005.2 0.0
17/02:30am 28.9 24.3 3.7 20 12.8 W 17 19 9 10 1006.3 1005.4 0.0
17/02:00am 28.2 22.6 0.9 17 13.2 WNW 20 22 11 12 1006.4 1005.5 0.0
17/01:30am 28.4 23.0 -1.6 14 13.8 W 17 20 9 11 1006.6 1005.7 0.0
17/01:00am 29.0 23.9 -2.2 13 14.3 W 15 17 8 9 1006.9 1006.0 0.0
17/12:30am 29.2 24.0 -3.1 12 14.6 WSW 15 15 8 8 1007.5 1006.6 0.0
17/12:00am 30.5 24.9 -3.3 11 15.4 WSW 17 22 9 12 1007.8 1006.9 0.0
 
Date/Time
EST
Temp
°C
App
Temp
°C
Dew
Point
°C
Rel
Hum
%
Delta-T
°C
Wind Press
QNH
hPa
Press
MSL
hPa
Rain since
9am
mm
Dir  Spd
km/h
Gust
km/h
Spd
kts
Gust
kts
16/11:30pm 31.0 25.4 -2.9 11 15.6 W 17 19 9 10 1008.1 1007.3 0.0
16/11:00pm 32.2 27.3 -3.2 10 16.4 WSW 13 15 7 8 1008.3 1007.5 0.0
16/10:30pm 33.0 27.3 -4.0 9 17.0 SW 17 19 9 10 1008.5 1007.7 0.0
16/10:00pm 33.6 28.7 -3.6 9 17.3 SW 13 15 7 8 1008.6 1007.8 0.0
16/09:30pm 33.8 29.3 -3.5 9 17.3 SW 11 15 6 8 1008.6 1007.8 0.0
16/09:00pm 34.5 29.3 -2.9 9 17.7 SW 15 17 8 9 1008.4 1007.6 0.0
16/08:30pm 35.4 30.5 -3.8 8 18.3 WSW 13 15 7 8 1008.2 1007.4 0.0
16/08:00pm 36.2 32.1 -3.3 8 18.8 WSW 9 13 5 7 1008.0 1007.1 0.0
16/07:30pm 37.7 34.1 -2.2 8 19.5 WSW 7 9 4 5 1007.7 1006.8 0.0
16/07:00pm 39.1 35.0 -2.9 7 20.5 WSW 9 15 5 8 1007.3 1006.4 0.0
16/06:30pm 39.7 33.8 -2.5 7 20.7 WSW 19 26 10 14 1007.1 1006.2 0.0
16/06:00pm 40.2 36.2 -2.1 7 21.0 NNW 9 17 5 9 1007.0 1006.1 0.0
16/05:30pm 40.5 36.5 -1.9 7 21.1 SW 9 19 5 10 1007.1 1006.2 0.0
16/05:00pm 40.8 35.5 -3.8 6 21.7 WNW 15 22 8 12 1007.1 1006.2 0.0
16/04:30pm 41.0 37.8 -3.6 6 21.7 NE 4 9 2 5 1007.4 1006.5 0.0
16/04:00pm 40.5 36.2 -1.9 7 21.2 N 11 24 6 13 1007.7 1006.8 0.0
16/03:30pm 40.7 35.6 -1.8 7 21.2 WNW 15 22 8 12 1007.9 1007.0 0.0
16/03:00pm 40.9 35.5 -1.6 7 21.4 WNW 17 30 9 16 1008.3 1007.5 0.0
16/02:30pm 39.8 34.1 -0.6 8 20.5 N 19 30 10 16 1008.7 1007.9 0.0
16/02:00pm 40.5 37.0 1.5 9 20.5 ENE 9 32 5 17 1009.1 1008.3 0.0
16/01:30pm 39.2 34.1 0.6 9 19.8 N 17 26 9 14 1009.7 1008.9 0.0
16/01:00pm 39.1 35.7 1.9 10 19.5 ENE 9 15 5 8 1010.2 1009.4 0.0
16/12:30pm 37.8 34.7 3.5 12 18.3 NNW 9 17 5 9 1010.6 1009.8 0.0
16/12:00pm 37.0 34.4 4.0 13 17.7 E 7 17 4 9 1011.0 1010.2 0.0
16/11:30am 36.6 33.9 3.7 13 17.5 E 7 9 4 5 1011.5 1010.7 0.0
16/11:00am 36.2 33.8 4.5 14 17.0 ENE 6 11 3 6 1012.0 1011.1 0.0
16/10:30am 34.8 32.2 3.4 14 16.4 E 6 17 3 9 1012.3 1011.4 0.0
16/10:00am 33.1 30.1 3.9 16 15.3 E 9 15 5 8 1012.5 1011.6 0.0
16/09:30am 31.4 27.8 5.0 19 13.9 ESE 13 19 7 10 1012.4 1011.5 0.0
16/09:00am 30.5 26.5 5.0 20 13.4 SE 15 20 8 11 1012.5 1011.6 -
16/08:30am 28.9 24.0 5.1 22 12.4 SE 20 26 11 14 1012.3 1011.4 -
16/08:00am 27.6 22.5 4.0 22 12.0 SSE 20 24 11 13 1012.2 1011.3 -
16/07:30am 26.6 21.8 4.4 24 11.3 S 19 24 10 13 1012.0 1011.1 -
16/07:00am 25.4 19.5 4.0 25 10.7 S 24 30 13 16 1011.7 1010.8 -
16/06:30am 24.4 19.2 3.7 26 10.2 S 20 26 11 14 1011.4 1010.6 -
16/06:00am 24.7 19.2 3.9 26 10.3 S 22 28 12 15 1011.0 1010.2 -
16/05:30am 24.6 18.6 3.3 25 10.4 S 24 28 13 15 1010.9 1010.1 -
16/05:00am 24.9 18.7 2.4 23 10.9 S 24 28 13 15 1010.7 1009.9 -
16/04:30am 25.4 18.7 1.5 21 11.4 S 26 32 14 17 1010.5 1009.7 -
16/04:00am 25.9 19.2 1.2 20 11.8 S 26 33 14 18 1010.7 1009.9 -
16/03:30am 25.9 19.3 -0.2 18 12.1 S 24 30 13 16 1010.8 1010.0 -
16/03:00am 27.1 20.9 0.0 17 12.7 S 22 26 12 14 1010.8 1010.0 0.0
16/02:30am 27.1 21.2 -0.9 16 12.9 S 20 24 11 13 1011.1 1010.3 -
16/02:00am 27.8 21.6 -0.3 16 13.2 S 22 26 12 14 1011.3 1010.5 -
16/01:30am 28.0 22.3 -1.0 15 13.5 S 19 20 10 11 1011.7 1010.8 -
16/01:00am 28.3 22.4 -0.8 15 13.6 S 20 22 11 12 1012.1 1011.2 -
16/12:30am 28.4 22.7 -0.7 15 13.6 S 19 22 10 12 1012.4 1011.5 -
16/12:00am 28.4 22.8 0.2 16 13.4 S 19 20 10 11 1012.6 1011.7 -
 
Date/Time
EST
Temp
°C
App
Temp
°C
Dew
Point
°C
Rel
Hum
%
Delta-T
°C
Wind Press
QNH
hPa
Press
MSL
hPa
Rain since
9am
mm
Dir  Spd
km/h
Gust
km/h
Spd
kts
Gust
kts
15/11:30pm 28.9 23.3 -0.3 15 13.8 S 19 20 10 11 1012.7 1011.8 -
15/11:00pm 29.8 24.6 0.4 15 14.2 S 17 20 9 11 1012.8 1011.9 -
15/10:30pm 29.9 24.8 0.5 15 14.2 S 17 20 9 11 1012.8 1011.9 -
15/10:00pm 30.2 25.0 -0.2 14 14.6 S 17 19 9 10 1012.8 1011.9 -
15/09:30pm 31.0 25.7 -0.6 13 15.1 SSE 17 19 9 10 1012.9 1012.0 -
15/09:00pm 31.6 26.4 -0.1 13 15.4 SSE 17 19 9 10 1012.8 1011.9 0.0
15/08:30pm 32.3 27.5 0.4 13 15.7 SSE 15 17 8 9 1012.5 1011.6 -
15/08:00pm 33.3 28.5 0.1 12 16.3 SSE 15 19 8 10 1012.3 1011.4 -
15/07:30pm 34.3 28.6 -0.4 11 17.0 SSE 19 24 10 13 1011.9 1011.0 -
15/07:00pm 35.0 30.2 0.2 11 17.3 ESE 15 22 8 12 1011.5 1010.7 -
15/06:30pm 35.6 30.3 -0.7 10 17.9 SE 17 24 9 13 1011.2 1010.4 -
15/06:00pm 35.8 29.9 -0.5 10 18.0 SE 20 30 11 16 1011.2 1010.4 -
15/05:30pm 36.0 31.1 -0.4 10 18.1 ESE 15 24 8 13 1011.3 1010.5 -
15/05:00pm 36.0 29.4 -0.4 10 18.1 SE 24 32 13 17 1011.5 1010.7 -
15/04:30pm 36.3 30.1 -0.2 10 18.2 SE 22 30 12 16 1011.7 1010.8 -
15/04:00pm 36.5 31.9 1.3 11 18.0 E 15 30 8 16 1011.7 1010.8 -
15/03:30pm 36.2 31.2 1.1 11 17.9 SSE 17 28 9 15 1011.8 1010.9 -
15/03:00pm 35.8 31.1 0.8 11 17.7 ESE 15 26 8 14 1012.2 1011.3 -
15/02:30pm 35.3 30.3 -0.9 10 17.7 E 15 28 8 15 1012.8 1011.9 -
15/02:00pm 35.3 29.2 -2.3 9 18.0 ESE 20 33 11 18 1013.3 1012.4 -
15/01:30pm 34.5 - 1.0 12 16.8 - - - - - 1013.8 1012.9 -

Other Formats:

Comma delimited format used in spreadsheet applications
http://www.bom.gov.au/fwo/IDQ60801/IDQ60801.95487.axf

JavaScript Object Notation format (JSON) in row-major order
http://www.bom.gov.au/fwo/IDQ60801/IDQ60801.95487.json